createdAt,value
2022-10-18T00:01:28.188Z,13.64
2022-10-18T00:03:55.589Z,13.70
2022-10-18T00:06:22.973Z,13.64
2022-10-18T00:08:50.323Z,13.63
2022-10-18T00:11:18.996Z,13.61
2022-10-18T00:13:46.324Z,13.61
2022-10-18T00:16:14.740Z,13.59
2022-10-18T00:18:42.293Z,13.57
2022-10-18T00:21:11.238Z,13.56
2022-10-18T00:23:38.585Z,13.55
2022-10-18T00:26:07.225Z,13.49
2022-10-18T00:28:36.369Z,13.47
2022-10-18T00:31:10.785Z,13.45
2022-10-18T00:33:38.112Z,13.44
2022-10-18T00:36:05.728Z,13.40
2022-10-18T00:38:33.068Z,13.41
2022-10-18T00:41:00.461Z,13.43
2022-10-18T00:43:27.789Z,13.43
2022-10-18T00:45:56.474Z,13.37
2022-10-18T00:48:24.623Z,13.34
2022-10-18T00:50:53.052Z,13.31
2022-10-18T00:53:21.548Z,13.29
2022-10-18T00:55:49.017Z,13.29
2022-10-18T00:58:17.639Z,13.29
2022-10-18T01:00:44.972Z,13.28
2022-10-18T01:03:13.673Z,13.26
2022-10-18T01:05:43.413Z,13.23
2022-10-18T01:08:17.049Z,13.25
2022-10-18T01:10:50.153Z,13.23
2022-10-18T01:13:35.942Z,13.22
2022-10-18T01:16:06.244Z,13.21
2022-10-18T01:18:38.785Z,13.17
2022-10-18T01:21:12.031Z,13.12
2022-10-18T01:24:04.568Z,13.11
2022-10-18T01:26:40.682Z,13.08
2022-10-18T01:29:20.545Z,13.04
2022-10-18T01:31:53.457Z,13.07
2022-10-18T01:34:25.722Z,13.10
2022-10-18T01:36:54.920Z,13.12
2022-10-18T01:39:24.672Z,13.13
2022-10-18T01:41:53.556Z,13.10
2022-10-18T01:44:22.558Z,13.09
2022-10-18T01:46:52.240Z,13.06
2022-10-18T01:49:19.590Z,13.01
2022-10-18T01:51:46.976Z,13.03
2022-10-18T01:54:16.992Z,13.05
2022-10-18T01:56:48.614Z,12.99
2022-10-18T01:59:23.841Z,13.00
2022-10-18T02:01:56.546Z,12.93
2022-10-18T02:04:29.972Z,12.92
2022-10-18T02:07:02.872Z,12.92
2022-10-18T02:09:32.853Z,12.94
2022-10-18T02:12:00.985Z,12.92
2022-10-18T02:14:28.829Z,12.87
2022-10-18T02:16:59.365Z,12.89
2022-10-18T02:19:29.191Z,12.87
2022-10-18T02:21:58.408Z,12.85
2022-10-18T02:24:28.226Z,12.83
2022-10-18T02:26:55.716Z,12.77
2022-10-18T02:29:23.417Z,12.80
2022-10-18T02:31:54.920Z,12.75
2022-10-18T02:34:24.751Z,12.76
2022-10-18T02:36:53.508Z,12.78
2022-10-18T02:39:23.493Z,12.77
2022-10-18T02:41:50.840Z,12.73
2022-10-18T02:44:18.224Z,12.71
2022-10-18T02:46:46.228Z,12.73
2022-10-18T02:49:13.616Z,12.71
2022-10-18T02:51:42.321Z,12.68
2022-10-18T02:54:09.796Z,12.68
2022-10-18T02:56:37.212Z,12.62
2022-10-18T02:59:07.224Z,12.62
2022-10-18T03:01:34.746Z,12.66
2022-10-18T03:04:02.148Z,12.63
2022-10-18T03:06:29.495Z,12.62
2022-10-18T03:08:58.183Z,12.58
2022-10-18T03:11:25.547Z,12.58
2022-10-18T03:13:52.868Z,12.59
2022-10-18T03:16:20.420Z,12.56
2022-10-18T03:18:47.816Z,12.57
2022-10-18T03:21:15.165Z,12.58
2022-10-18T03:23:42.663Z,12.55
2022-10-18T03:26:11.404Z,12.58
2022-10-18T03:28:38.778Z,12.53
2022-10-18T03:31:06.329Z,12.52
2022-10-18T03:33:34.040Z,12.49
2022-10-18T03:36:01.368Z,12.54
2022-10-18T03:38:28.720Z,12.54
2022-10-18T03:40:56.128Z,12.56
2022-10-18T03:43:24.899Z,12.53
2022-10-18T03:45:52.255Z,12.53
2022-10-18T03:48:19.606Z,12.51
2022-10-18T03:50:46.932Z,12.48
2022-10-18T03:53:14.417Z,12.50
2022-10-18T03:55:41.788Z,12.48
2022-10-18T03:58:09.184Z,12.52
2022-10-18T04:00:37.895Z,12.58
2022-10-18T04:03:05.208Z,12.60
2022-10-18T04:05:32.595Z,12.60
2022-10-18T04:07:59.934Z,12.58
2022-10-18T04:10:27.299Z,12.57
2022-10-18T04:12:54.688Z,12.55
2022-10-18T04:15:22.025Z,12.55
2022-10-18T04:17:50.734Z,12.61
2022-10-18T04:20:18.365Z,12.57
2022-10-18T04:22:45.764Z,12.58
2022-10-18T04:25:13.105Z,12.62
2022-10-18T04:27:40.480Z,12.59
2022-10-18T04:30:08.284Z,12.53
2022-10-18T04:32:35.965Z,12.57
2022-10-18T04:35:05.126Z,12.61
2022-10-18T04:37:33.094Z,12.64
2022-10-18T04:40:00.644Z,12.61
2022-10-18T04:42:27.997Z,12.59
2022-10-18T04:44:55.339Z,12.58
2022-10-18T04:47:22.695Z,12.58
2022-10-18T04:49:50.040Z,12.59
2022-10-18T04:52:18.751Z,12.65
2022-10-18T04:54:46.078Z,12.61
2022-10-18T04:57:13.435Z,12.61
2022-10-18T04:59:40.784Z,12.60
2022-10-18T05:02:08.089Z,12.57
2022-10-18T05:04:35.447Z,12.58
2022-10-18T05:07:03.137Z,12.60
2022-10-18T05:09:31.800Z,12.61
2022-10-18T05:11:59.148Z,12.60
2022-10-18T05:14:26.572Z,12.61
2022-10-18T05:16:53.922Z,12.59
2022-10-18T05:19:21.331Z,12.59
2022-10-18T05:21:48.716Z,12.61
2022-10-18T05:24:16.031Z,12.62
2022-10-18T05:26:44.703Z,12.60
2022-10-18T05:29:12.138Z,12.56
2022-10-18T05:31:39.583Z,12.55
2022-10-18T05:34:06.972Z,11.91
2022-10-18T05:36:34.315Z,12.51
2022-10-18T05:39:05.039Z,12.44
2022-10-18T05:41:32.608Z,12.60
2022-10-18T05:44:03.600Z,12.57
2022-10-18T05:46:31.025Z,12.57
2022-10-18T05:48:58.372Z,12.53
2022-10-18T05:51:25.788Z,12.52
2022-10-18T05:53:54.698Z,12.56
2022-10-18T05:56:22.074Z,12.27
2022-10-18T05:58:50.988Z,12.37
2022-10-18T06:01:20.048Z,12.51
2022-10-18T06:03:47.501Z,12.57
2022-10-18T06:06:15.971Z,12.59
2022-10-18T06:08:43.907Z,12.64
2022-10-18T06:11:12.498Z,12.71
2022-10-18T06:13:43.249Z,12.64
2022-10-18T06:16:11.157Z,12.67
2022-10-18T06:18:40.171Z,12.67
2022-10-18T06:21:08.302Z,12.61
2022-10-18T06:23:36.144Z,12.32
2022-10-18T06:26:04.870Z,12.61
2022-10-18T06:28:32.390Z,12.61
2022-10-18T06:30:59.897Z,12.67
2022-10-18T06:33:27.650Z,12.66
2022-10-18T06:35:57.005Z,12.80
2022-10-18T06:38:24.714Z,12.60
2022-10-18T06:40:52.099Z,12.78
2022-10-18T06:43:21.528Z,12.82
2022-10-18T06:45:49.076Z,12.84
2022-10-18T06:48:16.494Z,12.80
2022-10-18T06:50:43.882Z,12.61
2022-10-18T06:53:12.574Z,12.51
2022-10-18T06:55:39.934Z,12.47
2022-10-18T06:58:17.510Z,12.77
2022-10-18T07:00:45.275Z,12.56
2022-10-18T07:03:12.898Z,12.83
2022-10-18T07:05:40.236Z,12.51
2022-10-18T07:08:07.597Z,12.58
2022-10-18T07:10:36.373Z,12.76
2022-10-18T07:13:30.419Z,12.63
2022-10-18T07:16:00.635Z,12.92
2022-10-18T07:18:27.984Z,12.89
2022-10-18T07:20:55.365Z,12.97
2022-10-18T07:23:23.830Z,12.86
2022-10-18T07:25:52.549Z,12.75
2022-10-18T07:28:19.945Z,12.59
2022-10-18T07:30:47.309Z,12.79
2022-10-18T07:33:15.435Z,12.86
2022-10-18T07:35:45.809Z,11.89
2022-10-18T07:38:13.197Z,11.92
2022-10-18T07:40:40.554Z,12.45
2022-10-18T07:43:12.056Z,12.78
2022-10-18T07:45:39.669Z,12.46
2022-10-18T07:48:07.271Z,12.47
2022-10-18T07:50:34.636Z,12.10
2022-10-18T07:53:01.960Z,12.52
2022-10-18T07:55:29.289Z,12.74
2022-10-18T07:57:56.621Z,12.88
2022-10-18T08:00:25.336Z,13.03
2022-10-18T08:02:56.441Z,13.05
2022-10-18T08:05:23.843Z,13.18
2022-10-18T08:07:51.379Z,13.09
2022-10-18T08:10:18.710Z,12.99
2022-10-18T08:12:46.099Z,12.98
2022-10-18T08:15:13.496Z,12.94
2022-10-18T08:17:43.485Z,13.11
2022-10-18T08:20:19.302Z,13.28
2022-10-18T08:23:00.160Z,13.61
2022-10-18T08:25:28.470Z,13.75
2022-10-18T08:27:55.886Z,13.81
2022-10-18T08:30:23.592Z,14.00
2022-10-18T08:32:52.280Z,14.15
2022-10-18T08:35:19.742Z,14.21
2022-10-18T08:37:48.355Z,13.98
2022-10-18T08:40:15.762Z,14.40
2022-10-18T08:42:52.642Z,14.51
2022-10-18T08:45:37.562Z,14.22
2022-10-18T08:48:09.110Z,14.46
2022-10-18T08:50:38.654Z,14.66
2022-10-18T08:53:15.248Z,14.54
2022-10-18T08:55:45.650Z,14.64
2022-10-18T08:58:16.513Z,15.14
2022-10-18T09:00:47.534Z,15.01
2022-10-18T09:03:23.423Z,15.07
2022-10-18T09:05:53.100Z,15.36
2022-10-18T09:08:35.313Z,15.39
2022-10-18T09:11:09.334Z,15.41
2022-10-18T09:13:54.196Z,15.44
2022-10-18T09:16:22.725Z,16.42
2022-10-18T09:18:57.651Z,16.35
2022-10-18T09:21:30.270Z,16.39
2022-10-18T09:23:59.809Z,16.18
2022-10-18T09:29:25.331Z,16.90
2022-10-18T09:32:01.081Z,16.89
2022-10-18T09:34:32.491Z,16.52
2022-10-18T09:37:00.148Z,16.99
2022-10-18T09:39:31.109Z,16.89
2022-10-18T09:42:00.896Z,16.81
2022-10-18T09:44:31.138Z,16.72
2022-10-18T09:47:00.711Z,17.80
2022-10-18T09:49:30.249Z,17.24
2022-10-18T09:52:00.888Z,17.25
2022-10-18T09:54:31.742Z,17.17
2022-10-18T09:57:03.487Z,17.17
2022-10-18T09:59:36.175Z,17.39
2022-10-18T10:02:03.651Z,17.26
2022-10-18T10:04:31.055Z,17.42
2022-10-18T10:07:01.157Z,16.89
2022-10-18T10:09:29.472Z,16.99
2022-10-18T10:11:57.382Z,16.88
2022-10-18T10:14:26.377Z,17.55
2022-10-18T10:16:54.887Z,17.23
2022-10-18T10:19:25.352Z,17.10
2022-10-18T10:21:54.136Z,17.06
2022-10-18T10:24:28.824Z,17.20
2022-10-18T10:27:02.494Z,17.02
2022-10-18T10:29:49.105Z,16.92
2022-10-18T10:32:18.200Z,17.11
2022-10-18T10:34:45.838Z,16.99
2022-10-18T10:37:24.306Z,16.72
2022-10-18T10:40:17.860Z,16.60
2022-10-18T10:43:18.360Z,16.46
2022-10-18T10:45:58.024Z,16.50
2022-10-18T10:48:31.047Z,16.67
2022-10-18T10:51:02.407Z,16.42
2022-10-18T10:53:31.863Z,16.77
2022-10-18T10:56:01.068Z,16.61
2022-10-18T10:58:31.049Z,16.46
2022-10-18T11:00:58.549Z,16.22
2022-10-18T11:03:29.959Z,16.30
2022-10-18T11:06:00.636Z,16.32
2022-10-18T11:08:30.403Z,16.34
2022-10-18T11:11:03.786Z,16.15
2022-10-18T11:13:41.656Z,16.07
2022-10-18T11:16:14.261Z,15.89
2022-10-18T11:18:44.477Z,15.76
2022-10-18T11:21:13.401Z,15.78
2022-10-18T11:23:42.145Z,15.71
2022-10-18T11:26:20.640Z,15.81
2022-10-18T11:28:58.421Z,15.75
2022-10-18T11:31:28.399Z,15.78
2022-10-18T11:34:10.331Z,15.83
2022-10-18T11:36:49.455Z,15.84
2022-10-18T11:39:37.863Z,16.02
2022-10-18T11:42:14.808Z,15.97
2022-10-18T11:44:47.159Z,15.98
2022-10-18T11:47:18.469Z,16.03
2022-10-18T11:50:02.257Z,16.15
2022-10-18T11:52:34.564Z,16.03
2022-10-18T11:55:07.387Z,16.02
2022-10-18T11:57:41.506Z,16.02
2022-10-18T12:00:15.360Z,15.98
2022-10-18T12:02:52.077Z,15.97
2022-10-18T12:05:23.476Z,15.99
2022-10-18T12:07:54.761Z,16.06
2022-10-18T12:10:31.737Z,16.16
2022-10-18T12:13:15.530Z,16.16
2022-10-18T12:15:43.285Z,16.09
2022-10-18T12:18:13.752Z,16.25
2022-10-18T12:20:42.645Z,16.22
2022-10-18T12:23:11.901Z,16.22
2022-10-18T12:25:40.779Z,16.28
2022-10-18T12:28:14.721Z,16.35
2022-10-18T12:30:49.001Z,16.54
2022-10-18T12:33:29.295Z,16.47
2022-10-18T12:36:05.585Z,16.38
2022-10-18T12:38:34.344Z,16.37
2022-10-18T12:41:01.894Z,16.32
2022-10-18T12:43:32.516Z,16.16
2022-10-18T12:46:02.213Z,16.20
2022-10-18T12:48:31.231Z,16.18
2022-10-18T12:50:59.848Z,16.12
2022-10-18T12:53:27.885Z,16.13
2022-10-18T12:55:55.759Z,16.29
2022-10-18T12:58:25.294Z,16.21
2022-10-18T13:00:53.876Z,16.31
2022-10-18T13:03:40.851Z,16.26
2022-10-18T13:06:08.435Z,16.34
2022-10-18T13:08:42.764Z,16.36
2022-10-18T13:11:28.476Z,16.30
2022-10-18T13:14:06.374Z,16.38
2022-10-18T13:16:38.000Z,16.37
2022-10-18T13:19:23.427Z,16.36
2022-10-18T13:21:56.050Z,16.49
2022-10-18T13:24:26.910Z,16.43
2022-10-18T13:27:24.011Z,16.28
2022-10-18T13:29:56.280Z,16.28
2022-10-18T13:32:27.975Z,16.36
2022-10-18T13:34:56.838Z,16.33
2022-10-18T13:37:25.814Z,16.36
2022-10-18T13:40:13.254Z,16.33
2022-10-18T13:42:40.618Z,16.23
2022-10-18T13:45:26.544Z,16.38
2022-10-18T13:47:53.892Z,16.34
2022-10-18T13:50:36.279Z,16.34
2022-10-18T13:53:24.490Z,16.41
2022-10-18T13:56:03.477Z,16.31
2022-10-18T13:58:33.955Z,16.34
2022-10-18T14:01:06.706Z,16.30
2022-10-18T14:03:57.495Z,16.30
2022-10-18T14:06:28.304Z,16.23
2022-10-18T14:09:03.365Z,16.31
2022-10-18T14:11:44.128Z,16.29
2022-10-18T14:14:16.180Z,16.35
2022-10-18T14:16:47.493Z,16.35
2022-10-18T14:19:17.392Z,16.35
2022-10-18T14:21:50.024Z,16.45
2022-10-18T14:24:21.041Z,16.42
2022-10-18T14:26:48.435Z,16.43
2022-10-18T14:29:20.535Z,16.51
2022-10-18T14:31:53.134Z,16.32
2022-10-18T14:34:21.613Z,16.49
2022-10-18T14:36:50.901Z,16.41
2022-10-18T14:39:20.957Z,16.35
2022-10-18T14:41:52.335Z,16.46
2022-10-18T14:44:21.281Z,16.45
2022-10-18T14:46:49.361Z,16.34
2022-10-18T14:49:17.119Z,16.27
2022-10-18T14:51:45.651Z,16.37
2022-10-18T14:54:16.211Z,16.30
2022-10-18T14:56:44.535Z,16.34
2022-10-18T14:59:13.931Z,16.32
2022-10-18T15:01:43.671Z,16.27
2022-10-18T15:04:12.416Z,16.28
2022-10-18T15:06:43.695Z,16.26
2022-10-18T15:09:12.187Z,16.23
2022-10-18T15:11:42.181Z,16.31
2022-10-18T15:14:14.183Z,16.25
2022-10-18T15:16:41.754Z,16.21
2022-10-18T15:19:26.544Z,16.23
2022-10-18T15:22:08.056Z,16.20
2022-10-18T15:24:41.558Z,16.16
2022-10-18T15:27:14.421Z,16.10
2022-10-18T15:29:43.590Z,16.13
2022-10-18T15:32:16.797Z,16.11
2022-10-18T15:34:44.290Z,16.07
2022-10-18T15:37:31.271Z,16.10
2022-10-18T15:40:17.231Z,16.09
2022-10-18T15:42:45.967Z,16.01
2022-10-18T15:45:30.670Z,15.97
2022-10-18T15:47:59.479Z,15.94
2022-10-18T15:50:37.229Z,15.96
2022-10-18T15:53:23.822Z,15.97
2022-10-18T15:55:52.763Z,15.97
2022-10-18T15:58:22.839Z,15.94
2022-10-18T16:00:50.928Z,15.94
2022-10-18T16:03:19.317Z,15.86
2022-10-18T16:05:46.703Z,15.92
2022-10-18T16:08:23.765Z,15.91
2022-10-18T16:10:51.293Z,15.85
2022-10-18T16:13:18.704Z,15.72
2022-10-18T16:15:47.454Z,15.83
2022-10-18T16:18:16.167Z,15.70
2022-10-18T16:20:43.598Z,15.71
2022-10-18T16:23:16.975Z,15.62
2022-10-18T16:25:44.448Z,15.69
2022-10-18T16:28:13.685Z,15.78
2022-10-18T16:30:43.222Z,15.76
2022-10-18T16:33:12.109Z,15.61
2022-10-18T16:35:39.469Z,15.74
2022-10-18T16:38:06.813Z,15.72
2022-10-18T16:40:36.476Z,15.56
2022-10-18T16:43:06.267Z,15.62
2022-10-18T16:45:33.601Z,15.57
2022-10-18T16:48:00.943Z,15.47
2022-10-18T16:50:33.110Z,15.52
2022-10-18T16:53:01.927Z,15.45
2022-10-18T16:55:29.240Z,15.52
2022-10-18T16:57:57.151Z,15.36
2022-10-18T17:00:24.589Z,15.23
2022-10-18T17:02:51.920Z,15.39
2022-10-18T17:05:20.058Z,15.54
2022-10-18T17:07:48.740Z,15.59
2022-10-18T17:10:16.961Z,15.58
2022-10-18T17:12:45.314Z,15.48
2022-10-18T17:15:12.914Z,15.49
2022-10-18T17:17:40.413Z,15.31
2022-10-18T17:20:09.140Z,15.22
2022-10-18T17:22:36.495Z,15.32
2022-10-18T17:25:05.383Z,15.41
2022-10-18T17:27:34.752Z,15.48
2022-10-18T17:30:02.328Z,15.49
2022-10-18T17:32:30.180Z,15.48
2022-10-18T17:34:57.503Z,15.44
2022-10-18T17:37:24.857Z,15.52
2022-10-18T17:39:52.240Z,15.18
2022-10-18T17:42:21.582Z,15.19
2022-10-18T17:44:51.084Z,15.18
2022-10-18T17:47:19.384Z,15.16
2022-10-18T17:49:46.796Z,15.11
2022-10-18T17:52:14.152Z,15.20
2022-10-18T17:54:41.520Z,15.24
2022-10-18T17:57:08.916Z,15.18
2022-10-18T17:59:37.608Z,15.05
2022-10-18T18:02:04.982Z,15.11
2022-10-18T18:04:32.449Z,15.07
2022-10-18T18:06:59.779Z,15.23
2022-10-18T18:09:27.424Z,15.28
2022-10-18T18:11:55.446Z,15.38
2022-10-18T18:14:22.897Z,15.49
2022-10-18T18:16:51.581Z,15.47
2022-10-18T18:19:19.811Z,15.35
2022-10-18T18:21:47.193Z,15.25
2022-10-18T18:24:15.565Z,15.24
2022-10-18T18:26:43.315Z,15.43
2022-10-18T18:29:12.438Z,15.32
2022-10-18T18:31:43.487Z,15.29
2022-10-18T18:34:12.590Z,15.15
2022-10-18T18:36:39.968Z,15.27
2022-10-18T18:39:08.816Z,15.23
2022-10-18T18:41:37.284Z,15.45
2022-10-18T18:44:05.659Z,15.36
2022-10-18T18:46:36.664Z,15.27
2022-10-18T18:49:04.129Z,15.33
2022-10-18T18:51:33.131Z,15.08
2022-10-18T18:54:00.513Z,15.14
2022-10-18T18:56:28.760Z,15.27
2022-10-18T18:58:56.736Z,15.27
2022-10-18T19:01:25.224Z,15.30
2022-10-18T19:03:53.325Z,15.22
2022-10-18T19:06:22.083Z,15.19
2022-10-18T19:08:52.586Z,15.18
2022-10-18T19:11:21.126Z,15.14
2022-10-18T19:13:48.759Z,15.09
2022-10-18T19:16:18.839Z,15.07
2022-10-18T19:18:50.820Z,15.03
2022-10-18T19:21:18.159Z,15.01
2022-10-18T19:23:45.490Z,14.98
2022-10-18T19:26:14.651Z,14.86
2022-10-18T19:28:42.825Z,14.93
2022-10-18T19:31:10.262Z,14.92
2022-10-18T19:33:48.105Z,14.89
2022-10-18T19:36:23.364Z,14.86
2022-10-18T19:38:50.703Z,14.90
2022-10-18T19:41:19.480Z,14.88
2022-10-18T19:43:46.843Z,14.83
2022-10-18T19:46:14.210Z,14.78
2022-10-18T19:48:41.535Z,14.79
2022-10-18T19:51:09.750Z,14.74
2022-10-18T19:53:38.314Z,14.74
2022-10-18T19:56:06.553Z,14.63
2022-10-18T19:58:35.230Z,14.72
2022-10-18T20:01:02.644Z,14.38
2022-10-18T20:03:31.050Z,13.98
2022-10-18T20:05:58.839Z,14.30
2022-10-18T20:08:26.650Z,14.13
2022-10-18T20:10:54.362Z,13.99
2022-10-18T20:13:22.227Z,13.87
2022-10-18T20:15:51.378Z,14.03
2022-10-18T20:18:19.235Z,14.02
2022-10-18T20:20:48.281Z,14.24
2022-10-18T20:23:16.385Z,13.89
2022-10-18T20:25:43.770Z,14.44
2022-10-18T20:28:11.113Z,14.53
2022-10-18T20:30:38.608Z,14.05
2022-10-18T20:33:07.302Z,13.82
2022-10-18T20:35:34.634Z,14.13
2022-10-18T20:38:02.038Z,14.34
2022-10-18T20:40:29.481Z,14.39
2022-10-18T20:43:00.159Z,14.14
2022-10-18T20:45:28.809Z,13.97
2022-10-18T20:47:56.122Z,14.47
2022-10-18T20:50:27.749Z,14.08
2022-10-18T20:52:55.082Z,14.28
2022-10-18T20:55:22.413Z,14.21
2022-10-18T20:57:49.752Z,14.38
2022-10-18T21:00:17.158Z,14.39
2022-10-18T21:02:44.482Z,14.21
2022-10-18T21:05:11.913Z,13.90
2022-10-18T21:07:40.593Z,14.23
2022-10-18T21:10:08.307Z,14.38
2022-10-18T21:12:36.055Z,14.33
2022-10-18T21:15:03.645Z,14.35
2022-10-18T21:17:30.990Z,14.32
2022-10-18T21:19:58.388Z,14.27
2022-10-18T21:22:25.732Z,14.26
2022-10-18T21:24:54.398Z,14.29
2022-10-18T21:27:21.784Z,14.26
2022-10-18T21:29:49.254Z,14.17
2022-10-18T21:32:16.932Z,14.15
2022-10-18T21:34:44.269Z,14.07
2022-10-18T21:37:11.605Z,14.05
2022-10-18T21:39:38.980Z,13.98
2022-10-18T21:42:08.564Z,13.98
2022-10-18T21:44:36.780Z,13.98
2022-10-18T21:47:04.164Z,13.97
2022-10-18T21:49:34.990Z,13.95
2022-10-18T21:52:03.538Z,13.89
2022-10-18T21:54:31.065Z,13.88
2022-10-18T21:56:58.400Z,13.85
2022-10-18T21:59:27.064Z,13.84
2022-10-18T22:01:54.397Z,13.78
2022-10-18T22:04:23.198Z,13.78
2022-10-18T22:06:50.760Z,13.79
2022-10-18T22:09:18.107Z,13.83
2022-10-18T22:11:46.537Z,13.76
2022-10-18T22:14:14.040Z,13.71
2022-10-18T22:16:42.721Z,13.65
2022-10-18T22:19:10.104Z,13.63
2022-10-18T22:21:37.447Z,13.59
2022-10-18T22:24:05.698Z,13.61
2022-10-18T22:26:34.048Z,13.67
2022-10-18T22:29:02.607Z,13.63
2022-10-18T22:31:30.884Z,13.58
2022-10-18T22:34:00.508Z,13.47
2022-10-18T22:36:28.313Z,13.50
2022-10-18T22:38:55.836Z,13.51
2022-10-18T22:41:23.199Z,13.50
2022-10-18T22:43:50.824Z,13.49
2022-10-18T22:46:18.572Z,13.48
2022-10-18T22:48:46.099Z,13.46
2022-10-18T22:51:14.800Z,13.41
2022-10-18T22:53:42.152Z,13.40
2022-10-18T22:56:10.812Z,13.38
2022-10-18T22:58:38.174Z,13.33
2022-10-18T23:01:06.371Z,13.32
2022-10-18T23:03:33.718Z,13.28
2022-10-18T23:06:01.324Z,13.28
2022-10-18T23:08:30.100Z,13.31
2022-10-18T23:10:58.629Z,13.33
2022-10-18T23:13:26.548Z,13.32
2022-10-18T23:15:54.424Z,13.38
2022-10-18T23:18:21.740Z,13.36
2022-10-18T23:20:49.084Z,12.28
2022-10-18T23:23:16.412Z,13.16
2022-10-18T23:25:46.067Z,13.30
2022-10-18T23:28:14.144Z,13.28
2022-10-18T23:30:41.525Z,13.32
2022-10-18T23:33:08.853Z,13.41
2022-10-18T23:35:37.440Z,13.02
2022-10-18T23:38:04.776Z,13.23
2022-10-18T23:40:32.148Z,13.21
2022-10-18T23:43:00.947Z,13.22
2022-10-18T23:45:28.300Z,13.28
2022-10-18T23:47:55.737Z,13.04
2022-10-18T23:50:23.072Z,12.97
2022-10-18T23:52:50.405Z,12.60
2022-10-18T23:55:17.876Z,12.57
2022-10-18T23:57:45.277Z,12.35
